»·PEaware :: DAL1531 KSLC-KSFO

DAL1531 :: KSLC-KSFO

FLIGHT INFORMATION

Flight Status: Arrived
Operator:
Delta Air Lines
More flights by this operator :: More flights under this callsign
Pilot: Joe P. (13940)
Aircraft: BOEING 737-700
(B737)
More flights by this aircraft type
Origin: KSLC Salt Lake City Intl
United States
Destination: KSFO San Francisco Intl
United States
More flights between these airports :: More routes between these airports
Route: DEZRT1 DEZRT LLC LEGGS BDEGA3
File this flight plan on PilotEdge
Remarks: KLAX -PBN / A1B1C1D1L1O1S1 NAV / RNVD1E2A1 DOF / 180916 REG / N389DA EET / KZOA0046 RVR / 200 PER / C
Altitude:
(Current/Filed)
380ft
Speed:
(Current/Filed)
455kts
Departed: 16-Sep-18 06:49 AM
Arrived: 16-Sep-18 08:33 AM
Distance/Time
Traveled:
519nm/1:44
Distance/Time
To Go:
Arrived

Flight Plot

Page will automatically refresh every two minutes.

Flight plan parsing failed; only flown route is shown


Map Options




Map Legend


Flown Route
Filed Route
Departure Airport
Arrival Airport
Navaid (VOR, NDB)
Fix

Horizontal Profiles

Position Reports

Time Latitude Longitude Heading Altitude Ground
Speed
16-Sep-18 06:04 40.788533 -111.980747 280 4235ft 0kts
16-Sep-18 06:05 40.788533 -111.980747 280 4235ft 0kts
16-Sep-18 06:06 40.788533 -111.980747 280 4235ft 0kts
16-Sep-18 06:07 40.788533 -111.980747 280 4235ft 0kts
16-Sep-18 06:08 40.788533 -111.980747 280 4235ft 0kts
16-Sep-18 06:09 40.788533 -111.980747 280 4235ft 0kts
16-Sep-18 06:10 40.788533 -111.980747 280 4235ft 0kts
16-Sep-18 06:11 40.788533 -111.980747 280 4235ft 0kts
16-Sep-18 06:12 40.788533 -111.980747 280 4235ft 0kts
16-Sep-18 06:13 40.788533 -111.980747 280 4235ft 0kts
16-Sep-18 06:14 40.788533 -111.980747 280 4235ft 0kts
16-Sep-18 06:15 40.788533 -111.980747 280 4235ft 0kts
16-Sep-18 06:16 40.788533 -111.980747 280 4235ft 0kts
16-Sep-18 06:17 40.788533 -111.980747 280 4235ft 0kts
16-Sep-18 06:18 40.788533 -111.980747 280 4235ft 0kts
16-Sep-18 06:19 40.788533 -111.980747 280 4235ft 0kts
16-Sep-18 06:20 40.788533 -111.980747 280 4235ft 0kts
16-Sep-18 06:21 40.788533 -111.980747 280 4235ft 0kts
16-Sep-18 06:22 40.788533 -111.980747 280 4235ft 0kts
16-Sep-18 06:23 40.788533 -111.980747 280 4235ft 0kts
16-Sep-18 06:24 40.788533 -111.980747 280 4235ft 0kts
16-Sep-18 06:25 40.788533 -111.980747 280 4235ft 0kts
16-Sep-18 06:26 40.788533 -111.980747 280 4235ft 0kts
16-Sep-18 06:27 40.788533 -111.980747 280 4235ft 0kts
16-Sep-18 06:28 40.788533 -111.980747 280 4235ft 0kts
16-Sep-18 06:29 40.788533 -111.980747 280 4235ft 0kts
16-Sep-18 06:30 40.788533 -111.980747 280 4235ft 0kts
16-Sep-18 06:31 40.788533 -111.980747 280 4235ft 0kts
16-Sep-18 06:32 40.788533 -111.980747 280 4235ft 0kts
16-Sep-18 06:33 40.788533 -111.980747 280 4235ft 0kts
16-Sep-18 06:34 40.788533 -111.980747 280 4235ft 0kts
16-Sep-18 06:35 40.788533 -111.980747 280 4235ft 0kts
16-Sep-18 06:36 40.788533 -111.980747 280 4235ft 0kts
16-Sep-18 06:37 40.788533 -111.980747 280 4235ft 0kts
16-Sep-18 06:38 40.788533 -111.980747 280 4235ft 0kts
16-Sep-18 06:39 40.788533 -111.980747 280 4235ft 0kts
16-Sep-18 06:40 40.788488 -111.980441 280 4235ft 2kts
16-Sep-18 06:41 40.788367 -111.979614 280 4235ft 1kts
16-Sep-18 06:42 40.788362 -111.979584 280 4235ft 0kts
16-Sep-18 06:43 40.788362 -111.979584 280 4235ft 0kts
16-Sep-18 06:44 40.788363 -111.979585 280 4235ft 0kts
16-Sep-18 06:45 40.788375 -111.979636 289 4235ft 2kts
16-Sep-18 06:46 40.789760 -111.977823 83 4235ft 12kts
16-Sep-18 06:47 40.793346 -111.977544 355 4235ft 17kts
16-Sep-18 06:48 40.798734 -111.978145 353 4235ft 20kts
16-Sep-18 06:49 40.804369 -111.978811 354 4235ft 19kts
16-Sep-18 06:50 40.807288 -111.977114 131 4235ft 12kts
16-Sep-18 06:51 40.796280 -111.975585 175 4235ft 143kts
16-Sep-18 06:52 40.749852 -111.991552 245 7056ft 190kts
16-Sep-18 06:53 40.777558 -112.065480 306 8358ft 280kts
16-Sep-18 06:54 40.813000 -112.160776 282 11264ft 295kts
16-Sep-18 06:55 40.838011 -112.276454 281 12952ft 352kts
16-Sep-18 06:56 40.864726 -112.403444 278 14981ft 361kts
16-Sep-18 06:57 40.865642 -112.533296 261 15006ft 352kts
16-Sep-18 06:58 40.857535 -112.640443 260 15006ft 352kts
16-Sep-18 06:59 40.845218 -112.790660 260 15009ft 353kts
16-Sep-18 07:00 40.840193 -112.898570 266 16573ft 357kts
16-Sep-18 07:01 40.841575 -113.032373 266 18907ft 370kts
16-Sep-18 07:02 40.842140 -113.194071 265 21399ft 382kts
16-Sep-18 07:03 40.842298 -113.312432 266 22965ft 392kts
16-Sep-18 07:04 40.842842 -113.482678 265 25005ft 401kts
16-Sep-18 07:05 40.842651 -113.606220 265 26327ft 407kts
16-Sep-18 07:06 40.842023 -113.756853 264 27787ft 412kts
16-Sep-18 07:07 40.841402 -113.908974 264 29081ft 417kts
16-Sep-18 07:08 40.840076 -114.061345 264 30635ft 412kts
16-Sep-18 07:09 40.838681 -114.211223 263 32292ft 404kts
16-Sep-18 07:10 40.837706 -114.358389 264 33829ft 397kts
16-Sep-18 07:11 40.836501 -114.503681 263 35057ft 395kts
16-Sep-18 07:12 40.834688 -114.648355 263 36152ft 393kts
16-Sep-18 07:13 40.829356 -114.791639 257 37174ft 389kts
16-Sep-18 07:14 40.812857 -114.932198 257 38091ft 388kts
16-Sep-18 07:15 40.796973 -115.073038 257 38125ft 387kts
16-Sep-18 07:16 40.780707 -115.213622 257 38141ft 387kts
16-Sep-18 07:17 40.764156 -115.354255 257 38149ft 388kts
16-Sep-18 07:18 40.747453 -115.494962 256 38155ft 388kts
16-Sep-18 07:19 40.730497 -115.635399 256 38157ft 388kts
16-Sep-18 07:20 40.713276 -115.776306 256 38159ft 389kts
16-Sep-18 07:21 40.696289 -115.916939 257 38159ft 389kts
16-Sep-18 07:22 40.679187 -116.057922 256 38157ft 390kts
16-Sep-18 07:23 40.661746 -116.198843 256 38153ft 390kts
16-Sep-18 07:24 40.644086 -116.339673 256 38149ft 390kts
16-Sep-18 07:25 40.626216 -116.480634 256 38145ft 390kts
16-Sep-18 07:26 40.608485 -116.621455 256 38142ft 390kts
16-Sep-18 07:27 40.590154 -116.762215 256 38140ft 391kts
16-Sep-18 07:28 40.571475 -116.903372 254 38139ft 391kts
16-Sep-18 07:29 40.538649 -117.038794 248 38139ft 388kts
16-Sep-18 07:30 40.503414 -117.172784 248 38140ft 388kts
16-Sep-18 07:31 40.468069 -117.306401 248 38137ft 388kts
16-Sep-18 07:32 40.432762 -117.441047 248 38135ft 389kts
16-Sep-18 07:33 40.397377 -117.575066 248 38134ft 389kts
16-Sep-18 07:34 40.361620 -117.709275 248 38132ft 389kts
16-Sep-18 07:35 40.325664 -117.843354 247 38128ft 391kts
16-Sep-18 07:36 40.289502 -117.977431 247 38127ft 390kts
16-Sep-18 07:37 40.253173 -118.111408 247 38125ft 390kts
16-Sep-18 07:38 40.216812 -118.245750 247 38122ft 390kts
16-Sep-18 07:39 40.180154 -118.379461 247 38121ft 390kts
16-Sep-18 07:40 40.143167 -118.513114 247 38120ft 390kts
16-Sep-18 07:41 40.104987 -118.645734 246 38120ft 390kts
16-Sep-18 07:42 40.065161 -118.777186 246 38121ft 389kts
16-Sep-18 07:43 40.025108 -118.908817 246 38122ft 389kts
16-Sep-18 07:44 39.985267 -119.040110 246 38125ft 390kts
16-Sep-18 07:45 39.945325 -119.172083 246 38128ft 391kts
16-Sep-18 07:46 39.905122 -119.303666 245 38132ft 391kts
16-Sep-18 07:47 39.864758 -119.434917 245 38137ft 391kts
16-Sep-18 07:48 39.824129 -119.566310 245 38141ft 392kts
16-Sep-18 07:49 39.783301 -119.697688 245 38144ft 392kts
16-Sep-18 07:50 39.742301 -119.828976 245 38157ft 392kts
16-Sep-18 07:51 39.701220 -119.959897 245 38164ft 391kts
16-Sep-18 07:52 39.659985 -120.090682 245 38171ft 391kts
16-Sep-18 07:53 39.618496 -120.221651 245 38192ft 391kts
16-Sep-18 07:54 39.576907 -120.352320 245 38192ft 392kts
16-Sep-18 07:55 39.535068 -120.483164 245 38187ft 393kts
16-Sep-18 07:56 39.493103 -120.613783 245 38180ft 393kts
16-Sep-18 07:57 39.451082 -120.744513 245 38170ft 394kts
16-Sep-18 07:58 39.408845 -120.875058 244 38161ft 394kts
16-Sep-18 07:59 39.366211 -121.005442 244 38146ft 394kts
16-Sep-18 08:00 39.313266 -121.128488 230 38106ft 393kts
16-Sep-18 08:01 39.243658 -121.237239 230 38073ft 393kts
16-Sep-18 08:02 39.173306 -121.345297 230 38052ft 393kts
16-Sep-18 08:03 39.102803 -121.452998 230 38041ft 394kts
16-Sep-18 08:04 39.032035 -121.561220 230 38061ft 394kts
16-Sep-18 08:05 38.961350 -121.668576 229 38066ft 394kts
16-Sep-18 08:06 38.890345 -121.775927 229 38061ft 394kts
16-Sep-18 08:07 38.819403 -121.882788 229 38058ft 394kts
16-Sep-18 08:08 38.748912 -121.988608 229 36164ft 389kts
16-Sep-18 08:09 38.677885 -122.094880 229 33324ft 396kts
16-Sep-18 08:10 38.606058 -122.202424 229 30778ft 394kts
16-Sep-18 08:11 38.535343 -122.307371 229 28662ft 386kts
16-Sep-18 08:12 38.465730 -122.410297 229 26607ft 379kts
16-Sep-18 08:13 38.397349 -122.512176 229 24457ft 378kts
16-Sep-18 08:14 38.329989 -122.612033 229 22765ft 368kts
16-Sep-18 08:15 38.263365 -122.710340 229 20845ft 365kts
16-Sep-18 08:16 38.175129 -122.756174 173 19251ft 363kts
16-Sep-18 08:17 38.077929 -122.725382 169 17675ft 356kts
16-Sep-18 08:18 37.982369 -122.697228 169 16182ft 347kts
16-Sep-18 08:19 37.891011 -122.662588 152 14702ft 345kts
16-Sep-18 08:20 37.816957 -122.585713 142 13316ft 339kts
16-Sep-18 08:21 37.746989 -122.511744 142 11406ft 316kts
16-Sep-18 08:22 37.683051 -122.443750 141 11004ft 291kts
16-Sep-18 08:23 37.626133 -122.383346 142 10981ft 234kts
16-Sep-18 08:24 37.592338 -122.316943 116 9793ft 228kts
16-Sep-18 08:25 37.555711 -122.253651 154 7803ft 232kts
16-Sep-18 08:26 37.497034 -122.217251 154 5806ft 237kts
16-Sep-18 08:27 37.441054 -122.173202 119 3795ft 247kts
16-Sep-18 08:28 37.469945 -122.119818 349 2910ft 178kts
16-Sep-18 08:29 37.511519 -122.146073 331 3083ft 179kts
16-Sep-18 08:30 37.543144 -122.188833 297 2900ft 154kts
16-Sep-18 08:31 37.562258 -122.235039 297 2143ft 145kts
16-Sep-18 08:32 37.581602 -122.281108 297 1349ft 149kts
16-Sep-18 08:33 37.600532 -122.326157 298 553ft 141kts
16-Sep-18 08:34 37.617675 -122.366941 298 22ft 111kts
16-Sep-18 08:35 37.621286 -122.376900 245 21ft 9kts
16-Sep-18 08:36 37.619809 -122.379278 235 21ft 4kts
16-Sep-18 08:37 37.619752 -122.379381 235 21ft 0kts
16-Sep-18 08:38 37.619751 -122.379382 235 21ft 0kts
16-Sep-18 08:39 37.619751 -122.379383 235 21ft 0kts
16-Sep-18 08:40 37.619354 -122.380103 235 21ft 6kts
16-Sep-18 08:41 37.617963 -122.379852 158 21ft 3kts
16-Sep-18 08:42 37.617542 -122.380379 280 21ft 0kts
16-Sep-18 08:43 37.617542 -122.380379 280 21ft 0kts
16-Sep-18 08:44 37.617542 -122.380379 280 21ft 0kts
16-Sep-18 08:45 37.617542 -122.380379 280 21ft 0kts
16-Sep-18 08:46 37.617542 -122.380379 280 21ft 0kts
16-Sep-18 08:47 37.617542 -122.380379 280 21ft 0kts
16-Sep-18 08:48 37.617542 -122.380379 280 21ft 0kts
16-Sep-18 08:49 37.617542 -122.380379 280 21ft 0kts

Navigation Log

Ident Type
Flight plan parsing failed, navigation log unavailable